Time,TemperatureF,DewpointF,PressureIn,WindDirection,WindDirectionDegrees,WindSpeedMPH,WindSpeedGustMPH,Humidity,HourlyPrecipIn,Conditions,Clouds,dailyrainin,SoftwareType,DateUTC
2013-03-06 00:00:00,61.8,58.5,30.01,SW,221,6.0,8.0,89,0.00,,,0.00,Wunderground v.1.15,2013-03-06 05:00:00,
2013-03-06 00:05:00,61.7,58.4,30.01,SW,219,4.0,11.0,89,0.00,,,0.00,Wunderground v.1.15,2013-03-06 05:05:00,
2013-03-06 00:10:00,61.6,58.6,30.00,SW,219,7.0,11.0,90,0.00,,,0.00,Wunderground v.1.15,2013-03-06 05:10:00,
2013-03-06 00:15:00,61.6,58.6,30.00,SW,228,5.0,8.0,90,0.00,,,0.00,Wunderground v.1.15,2013-03-06 05:15:00,
2013-03-06 00:20:00,61.6,58.6,30.00,SW,229,6.0,11.0,90,0.00,,,0.00,Wunderground v.1.15,2013-03-06 05:20:00,
2013-03-06 00:25:00,61.5,58.8,30.00,SW,232,7.0,8.0,91,0.00,,,0.00,Wunderground v.1.15,2013-03-06 05:25:00,
2013-03-06 00:30:00,61.5,58.8,30.00,SW,225,4.0,8.0,91,0.00,,,0.00,Wunderground v.1.15,2013-03-06 05:30:00,
2013-03-06 00:35:00,61.4,58.7,30.00,SW,232,5.0,10.0,91,0.00,,,0.00,Wunderground v.1.15,2013-03-06 05:35:00,
2013-03-06 00:40:00,61.3,58.7,29.99,SW,215,8.0,10.0,91,0.00,,,0.00,Wunderground v.1.15,2013-03-06 05:40:00,
2013-03-06 00:45:00,61.3,59.0,29.99,SW,221,7.0,11.0,92,0.00,,,0.00,Wunderground v.1.15,2013-03-06 05:45:00,
2013-03-06 00:50:00,61.2,58.9,29.99,SW,233,6.0,11.0,92,0.00,,,0.00,Wunderground v.1.15,2013-03-06 05:50:00,
2013-03-06 00:55:00,61.2,58.9,29.99,SW,233,6.0,8.0,92,0.00,,,0.00,Wunderground v.1.15,2013-03-06 05:55:00,
2013-03-06 01:00:00,61.1,58.8,29.99,SW,226,6.0,8.0,92,0.00,,,0.00,Wunderground v.1.15,2013-03-06 06:00:00,
2013-03-06 01:05:00,61.1,59.1,29.99,SSW,210,5.0,9.0,93,0.00,,,0.00,Wunderground v.1.15,2013-03-06 06:05:00,
2013-03-06 01:10:00,61.0,59.0,29.99,SW,231,5.0,9.0,93,0.00,,,0.00,Wunderground v.1.15,2013-03-06 06:10:00,
2013-03-06 01:15:00,61.0,59.0,29.98,SW,219,5.0,8.0,93,0.00,,,0.00,Wunderground v.1.15,2013-03-06 06:15:00,
2013-03-06 01:20:00,60.9,58.9,29.98,SW,221,5.0,8.0,93,0.00,,,0.00,Wunderground v.1.15,2013-03-06 06:20:00,
2013-03-06 01:25:00,60.9,58.9,29.98,SW,228,5.0,10.0,93,0.00,,,0.00,Wunderground v.1.15,2013-03-06 06:25:00,
2013-03-06 01:30:00,60.9,59.2,29.98,SW,235,5.0,10.0,94,0.00,,,0.00,Wunderground v.1.15,2013-03-06 06:30:00,
2013-03-06 01:35:00,60.8,59.1,29.97,SW,234,6.0,7.0,94,0.00,,,0.00,Wunderground v.1.15,2013-03-06 06:35:00,
2013-03-06 01:40:00,60.8,59.1,29.97,SW,224,4.0,9.0,94,0.00,,,0.00,Wunderground v.1.15,2013-03-06 06:40:00,
2013-03-06 01:45:00,60.7,59.0,29.97,SW,225,5.0,10.0,94,0.00,,,0.00,Wunderground v.1.15,2013-03-06 06:45:00,
2013-03-06 01:50:00,60.7,59.0,29.97,SW,224,5.0,10.0,94,0.00,,,0.00,Wunderground v.1.15,2013-03-06 06:50:00,
2013-03-06 01:55:00,60.8,59.1,29.97,SW,229,4.0,10.0,94,0.00,,,0.00,Wunderground v.1.15,2013-03-06 06:55:00,
2013-03-06 02:00:00,60.8,59.1,29.97,SW,232,6.0,10.0,94,0.00,,,0.00,Wunderground v.1.15,2013-03-06 07:00:00,
2013-03-06 02:05:00,60.9,59.5,29.97,SW,218,9.0,11.0,95,0.00,,,0.00,Wunderground v.1.15,2013-03-06 07:05:00,
2013-03-06 02:10:00,60.9,59.5,29.96,SW,219,6.0,11.0,95,0.00,,,0.00,Wunderground v.1.15,2013-03-06 07:10:00,
2013-03-06 02:15:00,61.0,59.6,29.96,SW,232,6.0,8.0,95,0.00,,,0.00,Wunderground v.1.15,2013-03-06 07:15:00,
2013-03-06 02:20:00,61.1,59.7,29.96,SW,231,6.0,8.0,95,0.00,,,0.00,Wunderground v.1.15,2013-03-06 07:20:00,
2013-03-06 02:25:00,61.1,59.7,29.96,SW,227,5.0,8.0,95,0.00,,,0.00,Wunderground v.1.15,2013-03-06 07:25:00,
2013-03-06 02:30:00,61.1,59.4,29.96,WSW,240,6.0,8.0,94,0.00,,,0.00,Wunderground v.1.15,2013-03-06 07:30:00,
2013-03-06 02:35:00,61.1,59.4,29.96,WSW,237,7.0,7.0,94,0.00,,,0.00,Wunderground v.1.15,2013-03-06 07:35:00,
2013-03-06 02:40:00,61.1,59.7,29.95,SW,234,6.0,8.0,95,0.00,,,0.00,Wunderground v.1.15,2013-03-06 07:40:00,
2013-03-06 02:45:00,61.1,59.7,29.95,SW,236,6.0,9.0,95,0.00,,,0.00,Wunderground v.1.15,2013-03-06 07:45:00,
2013-03-06 02:50:00,61.1,59.7,29.95,SW,233,5.0,10.0,95,0.00,,,0.00,Wunderground v.1.15,2013-03-06 07:50:00,
2013-03-06 02:55:00,61.1,59.7,29.95,SW,232,6.0,8.0,95,0.00,,,0.00,Wunderground v.1.15,2013-03-06 07:55:00,
2013-03-06 03:00:00,61.1,59.7,29.94,SW,229,4.0,8.0,95,0.00,,,0.00,Wunderground v.1.15,2013-03-06 08:00:00,
2013-03-06 03:05:00,61.1,59.7,29.94,SW,230,6.0,10.0,95,0.00,,,0.00,Wunderground v.1.15,2013-03-06 08:05:00,
2013-03-06 03:10:00,61.2,59.8,29.94,SW,229,5.0,10.0,95,0.00,,,0.00,Wunderground v.1.15,2013-03-06 08:10:00,
2013-03-06 03:15:00,61.3,59.9,29.94,SW,230,6.0,9.0,95,0.00,,,0.00,Wunderground v.1.15,2013-03-06 08:15:00,
2013-03-06 03:20:00,61.4,60.0,29.93,SW,231,6.0,10.0,95,0.00,,,0.00,Wunderground v.1.15,2013-03-06 08:20:00,
2013-03-06 03:25:00,61.5,60.1,29.93,WSW,237,7.0,10.0,95,0.00,,,0.00,Wunderground v.1.15,2013-03-06 08:25:00,
2013-03-06 03:30:00,61.5,60.1,29.93,SW,232,6.0,10.0,95,0.00,,,0.00,Wunderground v.1.15,2013-03-06 08:30:00,
2013-03-06 03:35:00,61.6,60.4,29.93,SW,230,7.0,8.0,96,0.00,,,0.00,Wunderground v.1.15,2013-03-06 08:35:00,
2013-03-06 03:40:00,61.6,60.2,29.93,SW,230,6.0,11.0,95,0.00,,,0.00,Wunderground v.1.15,2013-03-06 08:40:00,
2013-03-06 03:45:00,61.6,60.2,29.93,SW,230,5.0,8.0,95,0.00,,,0.00,Wunderground v.1.15,2013-03-06 08:45:00,
2013-03-06 03:50:00,61.8,60.6,29.93,SW,236,7.0,9.0,96,0.00,,,0.00,Wunderground v.1.15,2013-03-06 08:50:00,
2013-03-06 03:55:00,61.8,60.6,29.93,WSW,237,7.0,11.0,96,0.00,,,0.00,Wunderground v.1.15,2013-03-06 08:55:00,
2013-03-06 04:00:00,61.9,60.5,29.93,SW,235,6.0,11.0,95,0.00,,,0.00,Wunderground v.1.15,2013-03-06 09:00:00,
2013-03-06 04:05:00,62.0,60.6,29.92,SW,235,5.0,9.0,95,0.00,,,0.00,Wunderground v.1.15,2013-03-06 09:05:00,
2013-03-06 04:10:00,62.1,60.7,29.93,SW,234,6.0,9.0,95,0.00,,,0.00,Wunderground v.1.15,2013-03-06 09:10:00,
2013-03-06 04:15:00,62.2,60.8,29.93,SW,232,6.0,8.0,95,0.00,,,0.00,Wunderground v.1.15,2013-03-06 09:15:00,
2013-03-06 04:20:00,62.4,60.9,29.93,WSW,238,6.0,9.0,95,0.00,,,0.00,Wunderground v.1.15,2013-03-06 09:20:00,
2013-03-06 04:25:00,62.5,61.0,29.93,SW,236,8.0,12.0,95,0.00,,,0.00,Wunderground v.1.15,2013-03-06 09:25:00,
2013-03-06 04:30:00,62.5,61.0,29.93,SW,236,7.0,12.0,95,0.00,,,0.00,Wunderground v.1.15,2013-03-06 09:30:00,
2013-03-06 04:35:00,62.6,61.1,29.93,SW,232,8.0,9.0,95,0.00,,,0.00,Wunderground v.1.15,2013-03-06 09:35:00,
2013-03-06 04:40:00,62.6,61.1,29.94,SW,236,8.0,9.0,95,0.00,,,0.00,Wunderground v.1.15,2013-03-06 09:40:00,
2013-03-06 04:45:00,62.7,61.2,29.94,WSW,254,5.0,9.0,95,0.00,,,0.00,Wunderground v.1.15,2013-03-06 09:45:00,
2013-03-06 04:50:00,62.8,61.3,29.95,WSW,247,6.0,10.0,95,0.00,,,0.00,Wunderground v.1.15,2013-03-06 09:50:00,
2013-03-06 04:55:00,62.9,61.4,29.95,WSW,247,7.0,8.0,95,0.00,,,0.00,Wunderground v.1.15,2013-03-06 09:55:00,
2013-03-06 05:00:00,62.8,61.0,29.95,WSW,258,6.0,9.0,94,0.00,,,0.00,Wunderground v.1.15,2013-03-06 10:00:00,
2013-03-06 05:05:00,62.7,60.6,29.96,SW,236,5.0,7.0,93,0.00,,,0.00,Wunderground v.1.15,2013-03-06 10:05:00,
2013-03-06 05:10:00,62.5,59.8,29.96,WSW,243,5.0,7.0,91,0.00,,,0.00,Wunderground v.1.15,2013-03-06 10:10:00,
2013-03-06 05:15:00,61.8,57.9,29.96,West,265,7.0,10.0,87,0.00,,,0.00,Wunderground v.1.15,2013-03-06 10:15:00,
2013-03-06 05:20:00,61.5,56.0,29.97,SW,229,6.0,10.0,82,0.00,,,0.00,Wunderground v.1.15,2013-03-06 10:20:00,
2013-03-06 05:25:00,61.3,55.4,29.97,WSW,243,3.0,6.0,81,0.00,,,0.00,Wunderground v.1.15,2013-03-06 10:25:00,
2013-03-06 05:30:00,61.1,55.6,29.97,WSW,257,3.0,6.0,82,0.00,,,0.00,Wunderground v.1.15,2013-03-06 10:30:00,
2013-03-06 05:35:00,61.1,55.9,29.98,WSW,241,5.0,7.0,83,0.00,,,0.00,Wunderground v.1.15,2013-03-06 10:35:00,
2013-03-06 05:40:00,61.1,55.9,29.98,WSW,248,2.0,7.0,83,0.00,,,0.00,Wunderground v.1.15,2013-03-06 10:40:00,
2013-03-06 05:45:00,60.8,55.6,29.98,WSW,248,3.0,5.0,83,0.00,,,0.00,Wunderground v.1.15,2013-03-06 10:45:00,
2013-03-06 05:50:00,60.6,55.7,29.98,WNW,287,5.0,7.0,84,0.00,,,0.00,Wunderground v.1.15,2013-03-06 10:50:00,
2013-03-06 05:55:00,60.4,55.5,29.99,WSW,252,4.0,6.0,84,0.00,,,0.00,Wunderground v.1.15,2013-03-06 10:55:00,
2013-03-06 06:00:00,60.2,56.0,29.99,West,279,2.0,7.0,86,0.00,,,0.00,Wunderground v.1.15,2013-03-06 11:00:00,
2013-03-06 06:05:00,59.8,55.6,29.99,West,281,3.0,4.0,86,0.00,,,0.00,Wunderground v.1.15,2013-03-06 11:05:00,
2013-03-06 06:10:00,59.6,55.4,30.00,WSW,253,5.0,6.0,86,0.00,,,0.00,Wunderground v.1.15,2013-03-06 11:10:00,
2013-03-06 06:15:00,59.5,55.3,30.00,West,277,3.0,5.0,86,0.00,,,0.00,Wunderground v.1.15,2013-03-06 11:15:00,
2013-03-06 06:20:00,59.4,55.5,30.00,West,276,2.0,7.0,87,0.00,,,0.00,Wunderground v.1.15,2013-03-06 11:20:00,
2013-03-06 06:25:00,59.1,54.3,30.01,WNW,288,3.0,10.0,84,0.00,,,0.00,Wunderground v.1.15,2013-03-06 11:25:00,
2013-03-06 06:30:00,58.1,49.9,30.02,NE,51,1.0,10.0,74,0.00,,,0.00,Wunderground v.1.15,2013-03-06 11:30:00,
2013-03-06 06:35:00,57.0,47.3,30.02,NNE,30,0.0,12.0,70,0.00,,,0.00,Wunderground v.1.15,2013-03-06 11:35:00,
2013-03-06 06:40:00,56.1,45.3,30.03,North,355,4.0,12.0,67,0.00,,,0.00,Wunderground v.1.15,2013-03-06 11:40:00,
2013-03-06 06:45:00,55.1,43.5,30.02,West,278,3.0,15.0,65,0.00,,,0.00,Wunderground v.1.15,2013-03-06 11:45:00,
2013-03-06 06:50:00,54.3,43.2,30.04,WNW,283,1.0,15.0,66,0.00,,,0.00,Wunderground v.1.15,2013-03-06 11:50:00,
2013-03-06 06:55:00,53.7,43.0,30.04,NW,308,2.0,7.0,67,0.00,,,0.00,Wunderground v.1.15,2013-03-06 11:55:00,
2013-03-06 07:00:00,53.3,43.0,30.06,North,360,1.0,7.0,68,0.00,,,0.00,Wunderground v.1.15,2013-03-06 12:00:00,
2013-03-06 07:05:00,53.1,43.2,30.06,North,10,1.0,5.0,69,0.00,,,0.00,Wunderground v.1.15,2013-03-06 12:05:00,
2013-03-06 07:11:00,52.9,43.0,30.06,West,269,1.0,8.0,69,0.00,,,0.00,Wunderground v.1.15,2013-03-06 12:11:00,
2013-03-06 07:16:00,52.7,42.8,30.06,WSW,256,2.0,7.0,69,0.00,,,0.00,Wunderground v.1.15,2013-03-06 12:16:00,
2013-03-06 07:21:00,52.1,40.7,30.06,WNW,299,0.0,7.0,65,0.00,,,0.00,Wunderground v.1.15,2013-03-06 12:21:00,
2013-03-06 07:26:00,51.4,39.6,30.08,West,277,2.0,8.0,64,0.00,,,0.00,Wunderground v.1.15,2013-03-06 12:26:00,
2013-03-06 07:31:00,50.9,38.7,30.08,West,273,6.0,11.0,63,0.00,,,0.00,Wunderground v.1.15,2013-03-06 12:31:00,
2013-03-06 07:36:00,50.6,38.1,30.08,NW,325,1.0,7.0,62,0.00,,,0.00,Wunderground v.1.15,2013-03-06 12:36:00,
2013-03-06 07:41:00,50.3,38.2,30.08,WNW,296,3.0,7.0,63,0.00,,,0.00,Wunderground v.1.15,2013-03-06 12:41:00,
2013-03-06 07:46:00,49.9,36.6,30.08,NNW,335,0.0,11.0,60,0.00,,,0.00,Wunderground v.1.15,2013-03-06 12:46:00,
2013-03-06 07:51:00,49.7,35.1,30.09,WSW,248,4.0,11.0,57,0.00,,,0.00,Wunderground v.1.15,2013-03-06 12:51:00,
2013-03-06 07:56:00,49.6,35.0,30.10,NNW,327,4.0,6.0,57,0.00,,,0.00,Wunderground v.1.15,2013-03-06 12:56:00,
2013-03-06 08:01:00,49.6,35.0,30.10,NNW,341,0.0,10.0,57,0.00,,,0.00,Wunderground v.1.15,2013-03-06 13:01:00,
2013-03-06 08:06:00,49.7,35.9,30.10,NNE,29,1.0,3.0,59,0.00,,,0.00,Wunderground v.1.15,2013-03-06 13:06:00,
2013-03-06 08:11:00,49.8,36.0,30.10,West,263,4.0,7.0,59,0.00,,,0.00,Wunderground v.1.15,2013-03-06 13:11:00,
2013-03-06 08:16:00,49.9,36.6,30.11,NW,325,2.0,7.0,60,0.00,,,0.00,Wunderground v.1.15,2013-03-06 13:16:00,
2013-03-06 08:21:00,49.8,35.6,30.10,WNW,292,2.0,12.0,58,0.00,,,0.00,Wunderground v.1.15,2013-03-06 13:21:00,
2013-03-06 08:26:00,49.7,35.1,30.11,WSW,245,5.0,10.0,57,0.00,,,0.00,Wunderground v.1.15,2013-03-06 13:26:00,
2013-03-06 08:31:00,49.9,35.3,30.10,North,351,0.0,10.0,57,0.00,,,0.00,Wunderground v.1.15,2013-03-06 13:31:00,
2013-03-06 08:36:00,50.0,35.8,30.10,North,9,0.0,7.0,58,0.00,,,0.00,Wunderground v.1.15,2013-03-06 13:36:00,
2013-03-06 08:41:00,50.2,36.0,30.11,West,280,2.0,9.0,58,0.00,,,0.00,Wunderground v.1.15,2013-03-06 13:41:00,
2013-03-06 08:46:00,50.2,36.4,30.11,NW,320,2.0,6.0,59,0.00,,,0.00,Wunderground v.1.15,2013-03-06 13:46:00,
2013-03-06 08:51:00,50.3,35.6,30.11,West,269,2.0,9.0,57,0.00,,,0.00,Wunderground v.1.15,2013-03-06 13:51:00,
2013-03-06 08:56:00,50.3,36.1,30.11,West,274,0.0,11.0,58,0.00,,,0.00,Wunderground v.1.15,2013-03-06 13:56:00,
2013-03-06 09:01:00,50.5,36.3,30.11,West,274,8.0,11.0,58,0.00,,,0.00,Wunderground v.1.15,2013-03-06 14:01:00,
2013-03-06 09:06:00,50.6,36.8,30.11,NNW,328,3.0,9.0,59,0.00,,,0.00,Wunderground v.1.15,2013-03-06 14:06:00,
2013-03-06 09:11:00,50.8,36.1,30.11,WNW,302,5.0,9.0,57,0.00,,,0.00,Wunderground v.1.15,2013-03-06 14:11:00,
2013-03-06 09:16:00,51.0,36.7,30.11,SW,226,3.0,9.0,58,0.00,,,0.00,Wunderground v.1.15,2013-03-06 14:16:00,
2013-03-06 09:21:00,51.1,35.0,30.11,NW,315,2.0,9.0,54,0.00,,,0.00,Wunderground v.1.15,2013-03-06 14:21:00,
2013-03-06 09:26:00,51.2,35.6,30.11,West,280,2.0,14.0,55,0.00,,,0.00,Wunderground v.1.15,2013-03-06 14:26:00,
2013-03-06 09:31:00,51.5,35.4,30.11,WNW,295,2.0,14.0,54,0.00,,,0.00,Wunderground v.1.15,2013-03-06 14:31:00,
2013-03-06 09:36:00,51.9,35.8,30.11,SW,218,0.0,8.0,54,0.00,,,0.00,Wunderground v.1.15,2013-03-06 14:36:00,
2013-03-06 09:41:00,52.3,36.6,30.11,SW,234,4.0,9.0,55,0.00,,,0.00,Wunderground v.1.15,2013-03-06 14:41:00,
2013-03-06 09:46:00,52.3,36.1,30.11,WNW,284,3.0,9.0,54,0.00,,,0.00,Wunderground v.1.15,2013-03-06 14:46:00,
2013-03-06 09:51:00,52.6,36.9,30.11,WNW,290,2.0,10.0,55,0.00,,,0.00,Wunderground v.1.15,2013-03-06 14:51:00,
2013-03-06 09:56:00,53.2,35.5,30.11,WSW,254,1.0,9.0,51,0.00,,,0.00,Wunderground v.1.15,2013-03-06 14:56:00,
2013-03-06 10:01:00,53.3,34.6,30.11,South,171,1.0,11.0,49,0.00,,,0.00,Wunderground v.1.15,2013-03-06 15:01:00,
2013-03-06 10:06:00,53.6,35.4,30.10,WSW,255,7.0,9.0,50,0.00,,,0.00,Wunderground v.1.15,2013-03-06 15:06:00,
2013-03-06 10:11:00,53.7,37.0,30.11,WSW,251,5.0,12.0,53,0.00,,,0.00,Wunderground v.1.15,2013-03-06 15:11:00,
2013-03-06 10:16:00,54.1,36.4,30.10,WSW,248,6.0,11.0,51,0.00,,,0.00,Wunderground v.1.15,2013-03-06 15:16:00,
2013-03-06 10:21:00,55.0,37.2,30.10,WSW,248,3.0,11.0,51,0.00,,,0.00,Wunderground v.1.15,2013-03-06 15:21:00,
2013-03-06 10:26:00,55.1,37.3,30.10,WSW,244,5.0,13.0,51,0.00,,,0.00,Wunderground v.1.15,2013-03-06 15:26:00,
2013-03-06 10:31:00,55.8,37.4,30.09,WSW,246,6.0,13.0,50,0.00,,,0.00,Wunderground v.1.15,2013-03-06 15:31:00,
2013-03-06 10:36:00,55.8,37.4,30.09,WSW,252,4.0,12.0,50,0.00,,,0.00,Wunderground v.1.15,2013-03-06 15:36:00,
2013-03-06 10:41:00,56.3,35.2,30.09,WSW,245,4.0,12.0,45,0.00,,,0.00,Wunderground v.1.15,2013-03-06 15:41:00,
2013-03-06 10:46:00,55.7,35.8,30.09,WSW,242,7.0,9.0,47,0.00,,,0.00,Wunderground v.1.15,2013-03-06 15:46:00,
2013-03-06 10:51:00,55.9,34.8,30.09,WSW,254,10.0,11.0,45,0.00,,,0.00,Wunderground v.1.15,2013-03-06 15:51:00,
2013-03-06 10:56:00,56.2,36.2,30.09,SW,231,6.0,13.0,47,0.00,,,0.00,Wunderground v.1.15,2013-03-06 15:56:00,
2013-03-06 11:01:00,56.4,35.9,30.09,WSW,246,5.0,13.0,46,0.00,,,0.00,Wunderground v.1.15,2013-03-06 16:01:00,
2013-03-06 11:06:00,56.8,36.8,30.08,WSW,245,11.0,12.0,47,0.00,,,0.00,Wunderground v.1.15,2013-03-06 16:06:00,
2013-03-06 11:11:00,57.2,37.1,30.08,SW,236,9.0,12.0,47,0.00,,,0.00,Wunderground v.1.15,2013-03-06 16:11:00,
2013-03-06 11:16:00,57.5,38.5,30.08,WSW,242,7.0,11.0,49,0.00,,,0.00,Wunderground v.1.15,2013-03-06 16:16:00,
2013-03-06 11:21:00,57.6,36.4,30.07,WSW,248,9.0,14.0,45,0.00,,,0.00,Wunderground v.1.15,2013-03-06 16:21:00,
2013-03-06 11:26:00,57.7,34.7,30.07,WSW,251,5.0,11.0,42,0.00,,,0.00,Wunderground v.1.15,2013-03-06 16:26:00,
2013-03-06 11:31:00,58.2,36.9,30.07,WSW,252,5.0,13.0,45,0.00,,,0.00,Wunderground v.1.15,2013-03-06 16:31:00,
2013-03-06 11:36:00,58.7,35.7,30.06,West,261,11.0,11.0,42,0.00,,,0.00,Wunderground v.1.15,2013-03-06 16:36:00,
2013-03-06 11:41:00,59.3,37.9,30.06,WSW,246,8.0,11.0,45,0.00,,,0.00,Wunderground v.1.15,2013-03-06 16:41:00,
2013-03-06 11:46:00,59.5,37.0,30.06,WSW,240,8.0,11.0,43,0.00,,,0.00,Wunderground v.1.15,2013-03-06 16:46:00,
2013-03-06 11:51:00,59.6,38.8,30.06,WSW,238,6.0,14.0,46,0.00,,,0.00,Wunderground v.1.15,2013-03-06 16:51:00,
2013-03-06 11:56:00,59.6,37.1,30.05,WNW,292,10.0,14.0,43,0.00,,,0.00,Wunderground v.1.15,2013-03-06 16:56:00,
2013-03-06 12:01:00,59.9,38.5,30.05,WSW,253,5.0,14.0,45,0.00,,,0.00,Wunderground v.1.15,2013-03-06 17:01:00,
2013-03-06 12:06:00,60.5,39.0,30.04,WSW,254,8.0,11.0,45,0.00,,,0.00,Wunderground v.1.15,2013-03-06 17:06:00,
2013-03-06 12:11:00,60.8,35.0,30.04,WSW,246,7.0,16.0,38,0.00,,,0.00,Wunderground v.1.15,2013-03-06 17:11:00,
2013-03-06 12:16:00,60.9,39.4,30.04,WSW,243,5.0,12.0,45,0.00,,,0.00,Wunderground v.1.15,2013-03-06 17:16:00,
2013-03-06 12:21:00,61.1,37.8,30.04,WSW,244,7.0,12.0,42,0.00,,,0.00,Wunderground v.1.15,2013-03-06 17:21:00,
2013-03-06 12:26:00,61.3,39.2,30.03,WSW,238,9.0,14.0,44,0.00,,,0.00,Wunderground v.1.15,2013-03-06 17:26:00,
2013-03-06 12:31:00,60.9,38.8,30.03,WSW,238,7.0,16.0,44,0.00,,,0.00,Wunderground v.1.15,2013-03-06 17:31:00,
2013-03-06 12:36:00,61.1,38.4,30.03,WSW,252,9.0,12.0,43,0.00,,,0.00,Wunderground v.1.15,2013-03-06 17:36:00,
2013-03-06 12:41:00,61.2,39.1,30.03,WSW,241,7.0,18.0,44,0.00,,,0.00,Wunderground v.1.15,2013-03-06 17:41:00,
2013-03-06 12:46:00,61.7,39.0,30.02,WSW,242,6.0,14.0,43,0.00,,,0.00,Wunderground v.1.15,2013-03-06 17:46:00,
2013-03-06 12:51:00,62.4,39.6,30.02,WSW,242,3.0,14.0,43,0.00,,,0.00,Wunderground v.1.15,2013-03-06 17:51:00,
2013-03-06 12:56:00,62.5,38.5,30.02,SW,234,8.0,12.0,41,0.00,,,0.00,Wunderground v.1.15,2013-03-06 17:56:00,
2013-03-06 13:01:00,62.2,37.6,30.02,SW,229,11.0,16.0,40,0.00,,,0.00,Wunderground v.1.15,2013-03-06 18:01:00,
2013-03-06 13:06:00,61.9,38.5,30.02,WSW,247,7.0,15.0,42,0.00,,,0.00,Wunderground v.1.15,2013-03-06 18:06:00,
2013-03-06 13:11:00,61.7,39.0,30.01,WSW,246,9.0,15.0,43,0.00,,,0.00,Wunderground v.1.15,2013-03-06 18:11:00,
2013-03-06 13:16:00,61.4,36.8,30.01,WSW,240,9.0,17.0,40,0.00,,,0.00,Wunderground v.1.15,2013-03-06 18:16:00,
2013-03-06 13:21:00,61.7,38.4,30.01,WSW,242,7.0,17.0,42,0.00,,,0.00,Wunderground v.1.15,2013-03-06 18:21:00,
2013-03-06 13:26:00,62.1,39.3,30.01,WSW,244,7.0,13.0,43,0.00,,,0.00,Wunderground v.1.15,2013-03-06 18:26:00,
2013-03-06 13:31:00,62.3,38.9,30.00,WSW,248,7.0,13.0,42,0.00,,,0.00,Wunderground v.1.15,2013-03-06 18:31:00,
2013-03-06 13:36:00,62.5,37.8,30.00,WSW,246,7.0,14.0,40,0.00,,,0.00,Wunderground v.1.15,2013-03-06 18:36:00,
2013-03-06 13:41:00,62.8,36.8,30.00,WSW,250,10.0,14.0,38,0.00,,,0.00,Wunderground v.1.15,2013-03-06 18:41:00,
2013-03-06 13:46:00,62.3,37.0,29.99,SW,226,10.0,14.0,39,0.00,,,0.00,Wunderground v.1.15,2013-03-06 18:46:00,
2013-03-06 13:51:00,62.3,36.4,29.99,WSW,250,10.0,14.0,38,0.00,,,0.00,Wunderground v.1.15,2013-03-06 18:51:00,
2013-03-06 13:56:00,62.8,37.5,29.99,WSW,240,5.0,13.0,39,0.00,,,0.00,Wunderground v.1.15,2013-03-06 18:56:00,
2013-03-06 14:01:00,63.6,38.2,29.99,SW,227,8.0,13.0,39,0.00,,,0.00,Wunderground v.1.15,2013-03-06 19:01:00,
2013-03-06 14:06:00,63.7,36.9,29.99,SW,235,11.0,16.0,37,0.00,,,0.00,Wunderground v.1.15,2013-03-06 19:06:00,
2013-03-06 14:11:00,62.9,36.2,29.99,WSW,244,10.0,16.0,37,0.00,,,0.00,Wunderground v.1.15,2013-03-06 19:11:00,
2013-03-06 14:16:00,62.8,38.7,29.99,WSW,244,7.0,15.0,41,0.00,,,0.00,Wunderground v.1.15,2013-03-06 19:16:00,
2013-03-06 14:21:00,62.8,38.7,29.99,WSW,240,7.0,15.0,41,0.00,,,0.00,Wunderground v.1.15,2013-03-06 19:21:00,
2013-03-06 14:26:00,62.9,38.2,29.99,SW,225,14.0,17.0,40,0.00,,,0.00,Wunderground v.1.15,2013-03-06 19:26:00,
2013-03-06 14:31:00,62.5,37.8,29.98,WSW,249,10.0,17.0,40,0.00,,,0.00,Wunderground v.1.15,2013-03-06 19:31:00,
2013-03-06 14:36:00,62.7,38.0,29.98,West,259,11.0,17.0,40,0.00,,,0.00,Wunderground v.1.15,2013-03-06 19:36:00,
2013-03-06 14:41:00,63.2,38.5,29.98,WSW,249,9.0,17.0,40,0.00,,,0.00,Wunderground v.1.15,2013-03-06 19:41:00,
2013-03-06 14:46:00,63.1,37.1,29.98,WSW,238,6.0,13.0,38,0.00,,,0.00,Wunderground v.1.15,2013-03-06 19:46:00,
2013-03-06 14:51:00,64.0,39.8,29.98,WSW,239,5.0,13.0,41,0.00,,,0.00,Wunderground v.1.15,2013-03-06 19:51:00,
2013-03-06 14:56:00,63.7,38.9,29.98,WSW,255,13.0,14.0,40,0.00,,,0.00,Wunderground v.1.15,2013-03-06 19:56:00,
2013-03-06 15:01:00,63.7,39.5,29.98,WSW,249,3.0,14.0,41,0.00,,,0.00,Wunderground v.1.15,2013-03-06 20:01:00,
2013-03-06 15:06:00,63.7,38.9,29.98,SW,236,7.0,15.0,40,0.00,,,0.00,Wunderground v.1.15,2013-03-06 20:06:00,
2013-03-06 15:11:00,63.6,39.5,29.98,WSW,257,7.0,15.0,41,0.00,,,0.00,Wunderground v.1.15,2013-03-06 20:11:00,
2013-03-06 15:16:00,63.3,39.8,29.98,WSW,242,5.0,15.0,42,0.00,,,0.00,Wunderground v.1.15,2013-03-06 20:16:00,
2013-03-06 15:21:00,63.6,39.5,29.98,WSW,239,9.0,16.0,41,0.00,,,0.00,Wunderground v.1.15,2013-03-06 20:21:00,
2013-03-06 15:26:00,63.3,37.9,29.98,WNW,284,4.0,18.0,39,0.00,,,0.00,Wunderground v.1.15,2013-03-06 20:26:00,
2013-03-06 15:31:00,63.4,38.0,29.98,SSW,205,10.0,18.0,39,0.00,,,0.00,Wunderground v.1.15,2013-03-06 20:31:00,
2013-03-06 15:36:00,63.1,36.4,29.97,SW,219,11.0,14.0,37,0.00,,,0.00,Wunderground v.1.15,2013-03-06 20:36:00,
2013-03-06 15:41:00,63.2,35.1,29.98,West,261,11.0,20.0,35,0.00,,,0.00,Wunderground v.1.15,2013-03-06 20:41:00,
2013-03-06 15:46:00,63.2,35.1,29.98,WSW,244,9.0,17.0,35,0.00,,,0.00,Wunderground v.1.15,2013-03-06 20:46:00,
2013-03-06 15:51:00,63.6,38.2,29.98,SSW,207,12.0,17.0,39,0.00,,,0.00,Wunderground v.1.15,2013-03-06 20:51:00,
2013-03-06 15:56:00,63.3,35.2,29.97,WSW,240,13.0,21.0,35,0.00,,,0.00,Wunderground v.1.15,2013-03-06 20:56:00,
2013-03-06 16:02:00,63.2,35.8,29.98,SW,225,8.0,21.0,36,0.00,,,0.00,Wunderground v.1.15,2013-03-06 21:02:00,
2013-03-06 16:07:00,63.3,37.9,29.98,WSW,243,10.0,16.0,39,0.00,,,0.00,Wunderground v.1.15,2013-03-06 21:07:00,
2013-03-06 16:12:00,63.4,37.3,29.98,WSW,243,8.0,18.0,38,0.00,,,0.00,Wunderground v.1.15,2013-03-06 21:12:00,
2013-03-06 16:17:00,63.5,36.0,29.98,WSW,243,7.0,14.0,36,0.00,,,0.00,Wunderground v.1.15,2013-03-06 21:17:00,
2013-03-06 16:22:00,63.2,37.8,29.97,WSW,250,9.0,14.0,39,0.00,,,0.00,Wunderground v.1.15,2013-03-06 21:22:00,
2013-03-06 16:27:00,62.8,37.5,29.98,SW,236,6.0,15.0,39,0.00,,,0.00,Wunderground v.1.15,2013-03-06 21:27:00,
2013-03-06 16:32:00,62.9,38.2,29.98,SW,236,7.0,8.0,40,0.00,,,0.00,Wunderground v.1.15,2013-03-06 21:32:00,
2013-03-06 16:37:00,62.6,38.6,29.98,WSW,244,11.0,16.0,41,0.00,,,0.00,Wunderground v.1.15,2013-03-06 21:37:00,
2013-03-06 16:42:00,62.2,39.4,29.98,WSW,254,8.0,9.0,43,0.00,,,0.00,Wunderground v.1.15,2013-03-06 21:42:00,
2013-03-06 16:47:00,62.1,39.3,29.98,WSW,254,9.0,14.0,43,0.00,,,0.00,Wunderground v.1.15,2013-03-06 21:47:00,
2013-03-06 16:52:00,61.8,40.2,29.98,WSW,246,7.0,8.0,45,0.00,,,0.00,Wunderground v.1.15,2013-03-06 21:52:00,
2013-03-06 16:57:00,61.4,39.3,29.98,WSW,252,9.0,11.0,44,0.00,,,0.00,Wunderground v.1.15,2013-03-06 21:57:00,
2013-03-06 17:02:00,61.1,39.6,29.98,WSW,253,6.0,8.0,45,0.00,,,0.00,Wunderground v.1.15,2013-03-06 22:02:00,
2013-03-06 17:07:00,61.0,40.6,29.99,SW,226,8.0,11.0,47,0.00,,,0.00,Wunderground v.1.15,2013-03-06 22:07:00,
2013-03-06 17:12:00,60.7,40.9,29.99,West,261,5.0,6.0,48,0.00,,,0.00,Wunderground v.1.15,2013-03-06 22:12:00,
2013-03-06 17:17:00,60.1,38.1,29.99,WSW,244,7.0,11.0,44,0.00,,,0.00,Wunderground v.1.15,2013-03-06 22:17:00,
2013-03-06 17:22:00,59.3,40.1,29.99,SW,223,12.0,12.0,49,0.00,,,0.00,Wunderground v.1.15,2013-03-06 22:22:00,
2013-03-06 17:27:00,58.9,39.2,29.99,SW,234,8.0,16.0,48,0.00,,,0.00,Wunderground v.1.15,2013-03-06 22:27:00,
2013-03-06 17:32:00,58.5,40.4,30.00,SW,225,8.0,9.0,51,0.00,,,0.00,Wunderground v.1.15,2013-03-06 22:32:00,
2013-03-06 17:37:00,58.4,40.3,30.00,WSW,252,6.0,10.0,51,0.00,,,0.00,Wunderground v.1.15,2013-03-06 22:37:00,
2013-03-06 17:42:00,58.1,39.5,30.01,WSW,254,6.0,13.0,50,0.00,,,0.00,Wunderground v.1.15,2013-03-06 22:42:00,
2013-03-06 17:47:00,57.3,39.8,30.00,WSW,238,10.0,15.0,52,0.00,,,0.00,Wunderground v.1.15,2013-03-06 22:47:00,
2013-03-06 17:52:00,57.1,41.5,30.01,SSW,213,8.0,15.0,56,0.00,,,0.00,Wunderground v.1.15,2013-03-06 22:52:00,
2013-03-06 17:57:00,56.7,40.2,30.01,SW,234,13.0,13.0,54,0.00,,,0.00,Wunderground v.1.15,2013-03-06 22:57:00,
2013-03-06 18:02:00,56.5,39.1,30.01,WSW,246,8.0,13.0,52,0.00,,,0.00,Wunderground v.1.15,2013-03-06 23:02:00,
2013-03-06 18:07:00,56.2,40.7,30.02,WSW,248,4.0,14.0,56,0.00,,,0.00,Wunderground v.1.15,2013-03-06 23:07:00,
2013-03-06 18:12:00,56.1,41.1,30.02,WSW,253,8.0,14.0,57,0.00,,,0.00,Wunderground v.1.15,2013-03-06 23:12:00,
2013-03-06 18:17:00,55.6,40.1,30.02,WSW,250,7.0,16.0,56,0.00,,,0.00,Wunderground v.1.15,2013-03-06 23:17:00,
2013-03-06 18:22:00,55.4,41.3,30.02,WSW,245,9.0,16.0,59,0.00,,,0.00,Wunderground v.1.15,2013-03-06 23:22:00,
2013-03-06 18:27:00,55.1,41.9,30.03,WSW,244,8.0,13.0,61,0.00,,,0.00,Wunderground v.1.15,2013-03-06 23:27:00,
2013-03-06 18:32:00,54.7,40.2,30.03,WSW,246,6.0,13.0,58,0.00,,,0.00,Wunderground v.1.15,2013-03-06 23:32:00,
2013-03-06 18:37:00,54.5,41.3,30.04,West,260,5.0,12.0,61,0.00,,,0.00,Wunderground v.1.15,2013-03-06 23:37:00,
2013-03-06 18:42:00,54.3,40.3,30.04,WSW,238,6.0,6.0,59,0.00,,,0.00,Wunderground v.1.15,2013-03-06 23:42:00,
2013-03-06 18:47:00,54.2,41.0,30.04,SW,224,13.0,13.0,61,0.00,,,0.00,Wunderground v.1.15,2013-03-06 23:47:00,
2013-03-06 18:52:00,53.9,39.9,30.04,WSW,246,5.0,6.0,59,0.00,,,0.00,Wunderground v.1.15,2013-03-06 23:52:00,
2013-03-06 18:57:00,53.6,40.0,30.04,WSW,250,6.0,10.0,60,0.00,,,0.00,Wunderground v.1.15,2013-03-06 23:57:00,
2013-03-06 19:02:00,53.5,39.5,30.05,WSW,243,6.0,6.0,59,0.00,,,0.00,Wunderground v.1.15,2013-03-07 00:02:00,
2013-03-06 19:07:00,53.3,40.2,30.06,WSW,255,6.0,7.0,61,0.00,,,0.00,Wunderground v.1.15,2013-03-07 00:07:00,
2013-03-06 19:12:00,53.1,40.4,30.06,WSW,243,5.0,5.0,62,0.00,,,0.00,Wunderground v.1.15,2013-03-07 00:12:00,
2013-03-06 19:17:00,52.9,39.8,30.06,WSW,246,4.0,8.0,61,0.00,,,0.00,Wunderground v.1.15,2013-03-07 00:17:00,
2013-03-06 19:22:00,52.9,39.8,30.06,WSW,250,4.0,5.0,61,0.00,,,0.00,Wunderground v.1.15,2013-03-07 00:22:00,
2013-03-06 19:27:00,52.8,40.1,30.06,West,267,9.0,10.0,62,0.00,,,0.00,Wunderground v.1.15,2013-03-07 00:27:00,
2013-03-06 19:32:00,52.6,39.5,30.07,WSW,246,4.0,6.0,61,0.00,,,0.00,Wunderground v.1.15,2013-03-07 00:32:00,
2013-03-06 19:37:00,52.5,39.8,30.06,WSW,254,5.0,12.0,62,0.00,,,0.00,Wunderground v.1.15,2013-03-07 00:37:00,
2013-03-06 19:42:00,52.4,39.8,30.06,WSW,255,3.0,4.0,62,0.00,,,0.00,Wunderground v.1.15,2013-03-07 00:42:00,
2013-03-06 19:47:00,52.5,40.7,30.06,WSW,257,2.0,7.0,64,0.00,,,0.00,Wunderground v.1.15,2013-03-07 00:47:00,
2013-03-06 19:52:00,52.5,40.7,30.06,WSW,253,4.0,4.0,64,0.00,,,0.00,Wunderground v.1.15,2013-03-07 00:52:00,
2013-03-06 19:57:00,52.4,40.6,30.07,WSW,244,2.0,5.0,64,0.00,,,0.00,Wunderground v.1.15,2013-03-07 00:57:00,
2013-03-06 20:02:00,52.4,40.6,30.07,WSW,244,4.0,4.0,64,0.00,,,0.00,Wunderground v.1.15,2013-03-07 01:02:00,
2013-03-06 20:07:00,52.4,40.6,30.07,WSW,252,3.0,7.0,64,0.00,,,0.00,Wunderground v.1.15,2013-03-07 01:07:00,
2013-03-06 20:12:00,52.2,39.6,30.08,WSW,248,4.0,5.0,62,0.00,,,0.00,Wunderground v.1.15,2013-03-07 01:12:00,
2013-03-06 20:17:00,52.3,40.9,30.08,WSW,249,1.0,7.0,65,0.00,,,0.00,Wunderground v.1.15,2013-03-07 01:17:00,
2013-03-06 20:22:00,52.1,39.9,30.08,WSW,255,3.0,5.0,63,0.00,,,0.00,Wunderground v.1.15,2013-03-07 01:22:00,
2013-03-06 20:27:00,52.0,40.6,30.09,WSW,250,2.0,7.0,65,0.00,,,0.00,Wunderground v.1.15,2013-03-07 01:27:00,
2013-03-06 20:32:00,51.9,40.5,30.09,WSW,242,2.0,4.0,65,0.00,,,0.00,Wunderground v.1.15,2013-03-07 01:32:00,
2013-03-06 20:37:00,51.9,40.5,30.09,SW,227,4.0,6.0,65,0.00,,,0.00,Wunderground v.1.15,2013-03-07 01:37:00,
2013-03-06 20:42:00,51.9,40.5,30.09,WSW,244,3.0,8.0,65,0.00,,,0.00,Wunderground v.1.15,2013-03-07 01:42:00,
2013-03-06 20:47:00,51.8,40.0,30.09,WNW,290,4.0,8.0,64,0.00,,,0.00,Wunderground v.1.15,2013-03-07 01:47:00,
2013-03-06 20:52:00,51.6,39.8,30.10,WNW,290,1.0,2.0,64,0.00,,,0.00,Wunderground v.1.15,2013-03-07 01:52:00,
2013-03-06 20:57:00,51.3,39.1,30.10,WNW,296,0.0,6.0,63,0.00,,,0.00,Wunderground v.1.15,2013-03-07 01:57:00,
2013-03-06 21:02:00,51.0,39.2,30.10,West,260,0.0,1.0,64,0.00,,,0.00,Wunderground v.1.15,2013-03-07 02:02:00,
2013-03-06 21:07:00,50.9,39.5,30.10,WNW,291,2.0,4.0,65,0.00,,,0.00,Wunderground v.1.15,2013-03-07 02:07:00,
2013-03-06 21:12:00,50.7,39.0,30.10,WSW,248,1.0,1.0,64,0.00,,,0.00,Wunderground v.1.15,2013-03-07 02:12:00,
2013-03-06 21:17:00,50.6,39.3,30.11,WSW,252,0.0,4.0,65,0.00,,,0.00,Wunderground v.1.15,2013-03-07 02:17:00,
2013-03-06 21:22:00,50.4,39.1,30.11,WNW,297,4.0,4.0,65,0.00,,,0.00,Wunderground v.1.15,2013-03-07 02:22:00,
2013-03-06 21:27:00,50.3,38.6,30.11,West,271,0.0,4.0,64,0.00,,,0.00,Wunderground v.1.15,2013-03-07 02:27:00,
2013-03-06 21:32:00,50.1,38.4,30.11,NNW,340,0.0,1.0,64,0.00,,,0.00,Wunderground v.1.15,2013-03-07 02:32:00,
2013-03-06 21:37:00,50.0,38.7,30.12,WNW,291,2.0,5.0,65,0.00,,,0.00,Wunderground v.1.15,2013-03-07 02:37:00,
2013-03-06 21:42:00,49.9,38.6,30.12,SW,229,0.0,5.0,65,0.00,,,0.00,Wunderground v.1.15,2013-03-07 02:42:00,
2013-03-06 21:47:00,49.8,38.5,30.12,SW,231,2.0,5.0,65,0.00,,,0.00,Wunderground v.1.15,2013-03-07 02:47:00,
2013-03-06 21:52:00,49.6,37.9,30.13,SW,229,0.0,1.0,64,0.00,,,0.00,Wunderground v.1.15,2013-03-07 02:52:00,
2013-03-06 21:57:00,49.5,37.4,30.13,SW,231,0.0,2.0,63,0.00,,,0.00,Wunderground v.1.15,2013-03-07 02:57:00,
2013-03-06 22:02:00,49.3,37.2,30.13,SW,231,0.0,3.0,63,0.00,,,0.00,Wunderground v.1.15,2013-03-07 03:02:00,
2013-03-06 22:07:00,49.1,37.0,30.13,SW,231,0.0,3.0,63,0.00,,,0.00,Wunderground v.1.15,2013-03-07 03:07:00,
2013-03-06 22:12:00,49.0,36.9,30.13,West,279,0.0,0.0,63,0.00,,,0.00,Wunderground v.1.15,2013-03-07 03:12:00,
2013-03-06 22:17:00,48.8,37.2,30.13,West,279,0.0,1.0,64,0.00,,,0.00,Wunderground v.1.15,2013-03-07 03:17:00,
2013-03-06 22:22:00,48.7,36.7,30.13,NW,309,0.0,0.0,63,0.00,,,0.00,Wunderground v.1.15,2013-03-07 03:22:00,
2013-03-06 22:27:00,48.5,36.5,30.14,ENE,59,1.0,4.0,63,0.00,,,0.00,Wunderground v.1.15,2013-03-07 03:27:00,
2013-03-06 22:32:00,48.3,36.7,30.14,ESE,103,0.0,0.0,64,0.00,,,0.00,Wunderground v.1.15,2013-03-07 03:32:00,
2013-03-06 22:37:00,48.1,36.5,30.14,NNW,344,0.0,3.0,64,0.00,,,0.00,Wunderground v.1.15,2013-03-07 03:37:00,
2013-03-06 22:42:00,47.9,36.7,30.15,NNW,344,0.0,0.0,65,0.00,,,0.00,Wunderground v.1.15,2013-03-07 03:42:00,
2013-03-06 22:47:00,47.7,36.5,30.15,NNW,336,0.0,2.0,65,0.00,,,0.00,Wunderground v.1.15,2013-03-07 03:47:00,
2013-03-06 22:52:00,47.4,36.2,30.15,NNW,336,0.0,0.0,65,0.00,,,0.00,Wunderground v.1.15,2013-03-07 03:52:00,
2013-03-06 22:57:00,47.2,36.0,30.15,NNW,336,0.0,3.0,65,0.00,,,0.00,Wunderground v.1.15,2013-03-07 03:57:00,
2013-03-06 23:02:00,47.1,35.9,30.15,NNW,336,0.0,0.0,65,0.00,,,0.00,Wunderground v.1.15,2013-03-07 04:02:00,
2013-03-06 23:07:00,46.9,35.7,30.16,NNW,336,0.0,1.0,65,0.00,,,0.00,Wunderground v.1.15,2013-03-07 04:07:00,
2013-03-06 23:12:00,46.8,36.0,30.15,NNW,336,0.0,0.0,66,0.00,,,0.00,Wunderground v.1.15,2013-03-07 04:12:00,
2013-03-06 23:17:00,46.7,35.6,30.15,NNW,336,0.0,0.0,65,0.00,,,0.00,Wunderground v.1.15,2013-03-07 04:17:00,
2013-03-06 23:22:00,46.6,35.5,30.15,NNW,336,0.0,0.0,65,0.00,,,0.00,Wunderground v.1.15,2013-03-07 04:22:00,
2013-03-06 23:27:00,46.5,36.1,30.15,NNW,336,0.0,0.0,67,0.00,,,0.00,Wunderground v.1.15,2013-03-07 04:27:00,
2013-03-06 23:32:00,46.3,35.6,30.15,NNW,336,0.0,0.0,66,0.00,,,0.00,Wunderground v.1.15,2013-03-07 04:32:00,
2013-03-06 23:37:00,46.0,35.3,30.15,NNW,336,0.0,0.0,66,0.00,,,0.00,Wunderground v.1.15,2013-03-07 04:37:00,
2013-03-06 23:42:00,45.8,35.5,30.15,NNW,336,0.0,0.0,67,0.00,,,0.00,Wunderground v.1.15,2013-03-07 04:42:00,
2013-03-06 23:47:00,45.5,35.2,30.15,NNW,336,0.0,1.0,67,0.00,,,0.00,Wunderground v.1.15,2013-03-07 04:47:00,
2013-03-06 23:52:00,45.3,35.0,30.14,NNW,336,0.0,0.0,67,0.00,,,0.00,Wunderground v.1.15,2013-03-07 04:52:00,
2013-03-06 23:57:00,45.1,35.2,30.15,NNW,336,0.0,0.0,68,0.00,,,0.00,Wunderground v.1.15,2013-03-07 04:57:00,